Aviation weather information 2022-01-25 23:12 UTC

TAF(FTEO31)
FTEO31 EETN 252300
TAF EETN 252306Z 2600/2624 VRB02KT 9999 SCT010 PROB30 TEMPO
     2600/2606 2000 BR BKN004 BECMG 2605/2607 19010KT BECMG 2611/2613
     3000 SN BKN010 OVC020 TEMPO 2613/2620 19014G25KT 1000 +SHSN BLSN
     BKN004 SCT015CB BECMG 2620/2622 2000 DZ BR BKN003 OVC006=

Weather observation (METAR/SPECI)
METAR EETN 252250Z 31006KT CAVOK M01/M04 Q1019=
METAR EEEI 252250Z AUTO 23004KT CAVOK M07/M08 Q1020=
METAR EETU 252250Z AUTO 26004KT 9999 NCD M07/M07 Q1019=
METAR EEPU 252250Z NIL=
METAR EEKE 252250Z AUTO VRB02KT 9999NDV NCD M05/M05 Q1022=
METAR EEKA 252250Z NIL=